sensor_id;sensor_type;location;lat;lon;timestamp;pressure;altitude;pressure_sealevel;temperature;humidity
63700;BME280;49845;47.130;142.766;2022-10-03T00:02:07;100880.31;;;14.46;80.55
63700;BME280;49845;47.130;142.766;2022-10-03T00:05:13;100873.19;;;14.51;79.47
63700;BME280;49845;47.130;142.766;2022-10-03T00:08:06;100867.03;;;14.54;79.62
63700;BME280;49845;47.130;142.766;2022-10-03T00:11:06;100869.56;;;14.58;79.68
63700;BME280;49845;47.130;142.766;2022-10-03T00:14:05;100860.69;;;14.62;78.80
63700;BME280;49845;47.130;142.766;2022-10-03T00:16:51;100877.00;;;14.77;78.73
63700;BME280;49845;47.130;142.766;2022-10-03T00:19:49;100872.66;;;15.12;77.47
63700;BME280;49845;47.130;142.766;2022-10-03T00:22:38;100866.97;;;15.60;77.44
63700;BME280;49845;47.130;142.766;2022-10-03T00:25:35;100860.34;;;16.09;75.01
63700;BME280;49845;47.130;142.766;2022-10-03T00:28:49;100868.41;;;16.32;74.05
63700;BME280;49845;47.130;142.766;2022-10-03T00:31:42;100855.88;;;16.41;73.48
63700;BME280;49845;47.130;142.766;2022-10-03T00:34:40;100861.28;;;16.64;73.26
63700;BME280;49845;47.130;142.766;2022-10-03T00:37:28;100864.97;;;16.87;72.70
63700;BME280;49845;47.130;142.766;2022-10-03T00:40:44;100865.69;;;17.18;72.56
63700;BME280;49845;47.130;142.766;2022-10-03T00:50:28;100843.72;;;17.66;69.76
63700;BME280;49845;47.130;142.766;2022-10-03T00:53:37;100827.59;;;17.74;70.02
63700;BME280;49845;47.130;142.766;2022-10-03T01:00:04;100826.44;;;17.83;70.00
63700;BME280;49845;47.130;142.766;2022-10-03T01:03:07;100807.94;;;17.83;70.47
63700;BME280;49845;47.130;142.766;2022-10-03T01:06:12;100815.16;;;18.01;70.01
63700;BME280;49845;47.130;142.766;2022-10-03T01:09:27;100816.50;;;18.11;69.71
63700;BME280;49845;47.130;142.766;2022-10-03T01:12:39;100802.75;;;18.25;70.39
63700;BME280;49845;47.130;142.766;2022-10-03T01:15:35;100793.59;;;18.34;69.60
63700;BME280;49845;47.130;142.766;2022-10-03T01:18:39;100803.84;;;18.42;69.84
63700;BME280;49845;47.130;142.766;2022-10-03T01:21:29;100790.94;;;18.34;69.75
63700;BME280;49845;47.130;142.766;2022-10-03T01:24:51;100783.56;;;18.42;70.63
63700;BME280;49845;47.130;142.766;2022-10-03T01:27:36;100781.69;;;18.44;70.00
63700;BME280;49845;47.130;142.766;2022-10-03T01:31:00;100770.75;;;18.53;70.57
63700;BME280;49845;47.130;142.766;2022-10-03T01:33:45;100758.06;;;18.62;69.77
63700;BME280;49845;47.130;142.766;2022-10-03T01:36:29;100751.19;;;18.58;69.38
63700;BME280;49845;47.130;142.766;2022-10-03T01:39:27;100742.44;;;18.56;69.11
63700;BME280;49845;47.130;142.766;2022-10-03T01:42:19;100723.44;;;18.66;70.14
63700;BME280;49845;47.130;142.766;2022-10-03T01:45:09;100715.75;;;18.82;70.27
63700;BME280;49845;47.130;142.766;2022-10-03T01:48:17;100704.50;;;18.98;68.80
63700;BME280;49845;47.130;142.766;2022-10-03T01:51:07;100707.81;;;19.03;68.52
63700;BME280;49845;47.130;142.766;2022-10-03T01:54:11;100695.81;;;18.94;69.04
63700;BME280;49845;47.130;142.766;2022-10-03T01:57:03;100653.28;;;18.78;68.96
63700;BME280;49845;47.130;142.766;2022-10-03T02:00:10;100690.13;;;19.03;68.69
63700;BME280;49845;47.130;142.766;2022-10-03T02:02:59;100685.97;;;18.98;68.99
63700;BME280;49845;47.130;142.766;2022-10-03T02:05:48;100682.66;;;18.92;69.27
63700;BME280;49845;47.130;142.766;2022-10-03T02:08:42;100662.34;;;19.12;69.09
63700;BME280;49845;47.130;142.766;2022-10-03T02:11:37;100668.53;;;19.12;69.73
63700;BME280;49845;47.130;142.766;2022-10-03T02:14:23;100680.13;;;19.29;69.42
63700;BME280;49845;47.130;142.766;2022-10-03T02:17:13;100660.78;;;19.46;69.95
63700;BME280;49845;47.130;142.766;2022-10-03T02:20:19;100662.94;;;19.56;68.75
63700;BME280;49845;47.130;142.766;2022-10-03T02:23:23;100653.59;;;19.67;69.75
63700;BME280;49845;47.130;142.766;2022-10-03T02:26:47;100651.97;;;19.64;69.63
63700;BME280;49845;47.130;142.766;2022-10-03T02:33:21;100630.00;;;19.62;69.92
63700;BME280;49845;47.130;142.766;2022-10-03T02:43:44;100593.78;;;19.80;69.61
63700;BME280;49845;47.130;142.766;2022-10-03T03:00:14;100591.84;;;20.18;69.61
63700;BME280;49845;47.130;142.766;2022-10-03T03:03:46;100575.16;;;20.16;69.00
63700;BME280;49845;47.130;142.766;2022-10-03T03:06:57;100555.84;;;19.97;69.24
63700;BME280;49845;47.130;142.766;2022-10-03T03:13:44;100571.59;;;20.00;68.83
63700;BME280;49845;47.130;142.766;2022-10-03T03:16:48;100568.31;;;19.95;69.29
63700;BME280;49845;47.130;142.766;2022-10-03T03:19:43;100554.56;;;19.87;70.01
63700;BME280;49845;47.130;142.766;2022-10-03T03:22:45;100552.69;;;19.89;70.00
63700;BME280;49845;47.130;142.766;2022-10-03T03:25:40;100553.69;;;19.86;69.69
63700;BME280;49845;47.130;142.766;2022-10-03T03:28:35;100544.72;;;19.71;70.13
63700;BME280;49845;47.130;142.766;2022-10-03T03:31:32;100538.13;;;19.61;70.96
63700;BME280;49845;47.130;142.766;2022-10-03T03:34:29;100531.28;;;19.57;71.01
63700;BME280;49845;47.130;142.766;2022-10-03T03:37:29;100531.28;;;19.57;71.30
63700;BME280;49845;47.130;142.766;2022-10-03T03:40:30;100522.53;;;19.55;71.54
63700;BME280;49845;47.130;142.766;2022-10-03T03:43:31;100513.66;;;19.56;71.97
63700;BME280;49845;47.130;142.766;2022-10-03T03:46:32;100519.50;;;19.63;72.10
63700;BME280;49845;47.130;142.766;2022-10-03T03:52:44;100502.75;;;19.62;71.88
63700;BME280;49845;47.130;142.766;2022-10-03T03:55:37;100488.41;;;19.66;72.23
63700;BME280;49845;47.130;142.766;2022-10-03T03:58:41;100484.38;;;19.76;72.56
63700;BME280;49845;47.130;142.766;2022-10-03T04:01:51;100489.03;;;19.89;71.89
63700;BME280;49845;47.130;142.766;2022-10-03T04:04:54;100485.47;;;19.90;72.01
63700;BME280;49845;47.130;142.766;2022-10-03T04:11:25;100450.66;;;20.29;71.32
63700;BME280;49845;47.130;142.766;2022-10-03T04:14:32;100456.00;;;20.45;71.35
63700;BME280;49845;47.130;142.766;2022-10-03T04:17:52;100446.06;;;20.48;70.58
63700;BME280;49845;47.130;142.766;2022-10-03T04:21:04;100450.06;;;20.57;71.36
63700;BME280;49845;47.130;142.766;2022-10-03T04:24:05;100441.63;;;20.49;70.93
63700;BME280;49845;47.130;142.766;2022-10-03T04:27:13;100452.09;;;20.52;71.56
63700;BME280;49845;47.130;142.766;2022-10-03T04:30:07;100447.09;;;20.46;71.59
63700;BME280;49845;47.130;142.766;2022-10-03T04:33:11;100443.16;;;20.37;72.41
63700;BME280;49845;47.130;142.766;2022-10-03T04:36:39;100435.81;;;20.42;73.16
63700;BME280;49845;47.130;142.766;2022-10-03T04:39:40;100432.44;;;20.39;73.37
63700;BME280;49845;47.130;142.766;2022-10-03T04:42:48;100439.72;;;20.19;73.78
63700;BME280;49845;47.130;142.766;2022-10-03T04:45:58;100424.28;;;20.10;74.63
63700;BME280;49845;47.130;142.766;2022-10-03T04:49:04;100417.66;;;20.01;75.38
63700;BME280;49845;47.130;142.766;2022-10-03T04:52:16;100425.88;;;19.97;76.03
63700;BME280;49845;47.130;142.766;2022-10-03T04:55:14;100420.09;;;19.89;76.44
63700;BME280;49845;47.130;142.766;2022-10-03T04:58:02;100410.13;;;19.76;76.46
63700;BME280;49845;47.130;142.766;2022-10-03T05:00:53;100424.34;;;19.75;77.47
63700;BME280;49845;47.130;142.766;2022-10-03T05:03:44;100414.16;;;19.66;77.79
63700;BME280;49845;47.130;142.766;2022-10-03T05:06:36;100410.03;;;19.60;78.23
63700;BME280;49845;47.130;142.766;2022-10-03T05:09:24;100405.75;;;19.58;78.70
63700;BME280;49845;47.130;142.766;2022-10-03T05:12:11;100393.75;;;19.51;79.06
63700;BME280;49845;47.130;142.766;2022-10-03T05:15:17;100383.63;;;19.42;79.49
63700;BME280;49845;47.130;142.766;2022-10-03T05:18:10;100363.03;;;19.12;80.03
63700;BME280;49845;47.130;142.766;2022-10-03T05:21:08;100388.78;;;19.27;81.07
63700;BME280;49845;47.130;142.766;2022-10-03T05:23:54;100384.56;;;19.23;81.47
63700;BME280;49845;47.130;142.766;2022-10-03T05:26:47;100394.53;;;19.18;82.24
63700;BME280;49845;47.130;142.766;2022-10-03T05:29:35;100398.34;;;19.12;82.06
63700;BME280;49845;47.130;142.766;2022-10-03T05:32:29;100397.63;;;19.09;82.79
63700;BME280;49845;47.130;142.766;2022-10-03T05:35:27;100393.50;;;19.03;83.17
63700;BME280;49845;47.130;142.766;2022-10-03T05:38:27;100374.94;;;18.86;83.51
63700;BME280;49845;47.130;142.766;2022-10-03T05:41:21;100376.44;;;18.72;83.58
63700;BME280;49845;47.130;142.766;2022-10-03T05:44:12;100393.53;;;18.84;84.05
63700;BME280;49845;47.130;142.766;2022-10-03T05:47:10;100404.56;;;18.75;84.70
63700;BME280;49845;47.130;142.766;2022-10-03T05:50:48;100400.84;;;18.60;85.00
63700;BME280;49845;47.130;142.766;2022-10-03T05:54:21;100405.88;;;18.47;85.62
63700;BME280;49845;47.130;142.766;2022-10-03T05:57:24;100410.53;;;18.42;86.05
63700;BME280;49845;47.130;142.766;2022-10-03T06:00:20;100415.50;;;18.29;86.22
63700;BME280;49845;47.130;142.766;2022-10-03T06:06:46;100413.03;;;18.06;87.71
63700;BME280;49845;47.130;142.766;2022-10-03T06:13:14;100418.38;;;17.85;88.77
63700;BME280;49845;47.130;142.766;2022-10-03T06:15:57;100337.66;;;17.37;89.13
63700;BME280;49845;47.130;142.766;2022-10-03T06:22:42;100415.09;;;17.79;89.52
63700;BME280;49845;47.130;142.766;2022-10-03T06:29:07;100397.94;;;17.89;89.50
63700;BME280;49845;47.130;142.766;2022-10-03T06:35:48;100402.38;;;17.88;88.93
63700;BME280;49845;47.130;142.766;2022-10-03T06:42:14;100428.59;;;17.73;89.19
63700;BME280;49845;47.130;142.766;2022-10-03T06:49:04;100402.47;;;17.44;89.77
63700;BME280;49845;47.130;142.766;2022-10-03T06:52:08;100375.91;;;17.27;89.78
63700;BME280;49845;47.130;142.766;2022-10-03T06:59:04;100411.16;;;17.48;89.47
63700;BME280;49845;47.130;142.766;2022-10-03T07:02:15;100403.47;;;17.42;89.51
63700;BME280;49845;47.130;142.766;2022-10-03T07:18:30;100397.00;;;17.29;90.19
63700;BME280;49845;47.130;142.766;2022-10-03T07:21:42;100396.84;;;17.32;90.28
63700;BME280;49845;47.130;142.766;2022-10-03T07:31:05;100398.59;;;17.33;90.09
63700;BME280;49845;47.130;142.766;2022-10-03T07:34:22;100390.84;;;17.28;90.32
63700;BME280;49845;47.130;142.766;2022-10-03T07:37:26;100395.16;;;17.31;90.59
63700;BME280;49845;47.130;142.766;2022-10-03T08:03:47;100365.69;;;17.19;91.36
63700;BME280;49845;47.130;142.766;2022-10-03T08:10:36;100346.94;;;17.25;91.37
63700;BME280;49845;47.130;142.766;2022-10-03T08:13:39;100336.31;;;17.27;91.44
63700;BME280;49845;47.130;142.766;2022-10-03T08:19:25;100347.34;;;17.37;91.12
63700;BME280;49845;47.130;142.766;2022-10-03T08:22:30;100349.06;;;17.38;90.94
63700;BME280;49845;47.130;142.766;2022-10-03T08:25:37;100338.66;;;17.35;90.74
63700;BME280;49845;47.130;142.766;2022-10-03T08:28:47;100331.47;;;17.37;90.59
63700;BME280;49845;47.130;142.766;2022-10-03T08:31:56;100334.13;;;17.37;90.80
63700;BME280;49845;47.130;142.766;2022-10-03T08:35:02;100322.78;;;17.35;90.63
63700;BME280;49845;47.130;142.766;2022-10-03T08:38:19;100325.44;;;17.35;90.54
63700;BME280;49845;47.130;142.766;2022-10-03T08:51:16;100344.03;;;17.11;90.81
63700;BME280;49845;47.130;142.766;2022-10-03T08:54:22;100335.59;;;17.03;91.03
63700;BME280;49845;47.130;142.766;2022-10-03T08:57:23;100337.00;;;16.90;91.61
63700;BME280;49845;47.130;142.766;2022-10-03T09:00:15;100343.88;;;16.94;91.47
63700;BME280;49845;47.130;142.766;2022-10-03T09:06:43;100347.56;;;16.90;91.99
63700;BME280;49845;47.130;142.766;2022-10-03T09:13:11;100333.81;;;16.81;92.49
63700;BME280;49845;47.130;142.766;2022-10-03T09:20:11;100349.94;;;16.74;92.35
63700;BME280;49845;47.130;142.766;2022-10-03T09:29:55;100338.56;;;16.50;92.85
63700;BME280;49845;47.130;142.766;2022-10-03T09:36:03;100344.97;;;16.44;93.73
63700;BME280;49845;47.130;142.766;2022-10-03T09:39:04;100345.81;;;16.45;94.31
63700;BME280;49845;47.130;142.766;2022-10-03T09:45:32;100326.94;;;16.33;95.30
63700;BME280;49845;47.130;142.766;2022-10-03T09:49:03;100328.53;;;16.37;95.52
63700;BME280;49845;47.130;142.766;2022-10-03T09:52:22;100312.81;;;16.34;95.75
63700;BME280;49845;47.130;142.766;2022-10-03T09:55:39;100300.56;;;16.33;96.18
63700;BME280;49845;47.130;142.766;2022-10-03T09:59:19;100286.56;;;16.31;96.36
63700;BME280;49845;47.130;142.766;2022-10-03T10:05:52;100287.91;;;16.42;96.69
63700;BME280;49845;47.130;142.766;2022-10-03T10:19:03;100267.69;;;16.42;97.03
63700;BME280;49845;47.130;142.766;2022-10-03T10:26:32;100249.28;;;16.41;96.60
63700;BME280;49845;47.130;142.766;2022-10-03T10:48:49;100230.66;;;16.23;96.50
63700;BME280;49845;47.130;142.766;2022-10-03T10:55:19;100150.19;;;15.69;96.23
63700;BME280;49845;47.130;142.766;2022-10-03T11:02:12;100195.59;;;15.99;96.27
63700;BME280;49845;47.130;142.766;2022-10-03T11:08:54;100081.59;;;15.28;97.04
63700;BME280;49845;47.130;142.766;2022-10-03T11:12:21;100097.47;;;15.25;97.43
63700;BME280;49845;47.130;142.766;2022-10-03T11:22:35;100182.59;;;15.94;97.43
63700;BME280;49845;47.130;142.766;2022-10-03T11:25:48;100150.00;;;15.75;97.43
63700;BME280;49845;47.130;142.766;2022-10-03T11:32:08;100106.19;;;15.27;97.75
63700;BME280;49845;47.130;142.766;2022-10-03T11:35:29;100186.63;;;15.81;97.89
63700;BME280;49845;47.130;142.766;2022-10-03T11:38:44;100137.09;;;15.45;97.80
63700;BME280;49845;47.130;142.766;2022-10-03T11:44:26;100172.16;;;15.69;98.22
63700;BME280;49845;47.130;142.766;2022-10-03T11:47:55;100147.63;;;15.67;98.56
63700;BME280;49845;47.130;142.766;2022-10-03T11:50:47;100117.72;;;15.46;98.73
63700;BME280;49845;47.130;142.766;2022-10-03T11:53:49;100125.69;;;15.67;98.88
63700;BME280;49845;47.130;142.766;2022-10-03T13:42:55;99882.22;;;15.53;97.18
63700;BME280;49845;47.130;142.766;2022-10-03T13:46:12;99981.13;;;16.22;97.36
63700;BME280;49845;47.130;142.766;2022-10-03T13:49:08;99909.22;;;15.79;97.55
63700;BME280;49845;47.130;142.766;2022-10-03T13:52:03;99865.41;;;15.56;97.54
63700;BME280;49845;47.130;142.766;2022-10-03T13:55:17;99961.09;;;16.18;97.65
63700;BME280;49845;47.130;142.766;2022-10-03T14:12:23;99893.91;;;16.08;98.14
63700;BME280;49845;47.130;142.766;2022-10-03T14:15:31;99879.81;;;16.09;98.22
63700;BME280;49845;47.130;142.766;2022-10-03T14:30:15;99833.50;;;16.22;97.68
63700;BME280;49845;47.130;142.766;2022-10-03T14:33:10;99807.69;;;16.10;97.73
63700;BME280;49845;47.130;142.766;2022-10-03T14:36:02;99810.41;;;16.27;97.68
63700;BME280;49845;47.130;142.766;2022-10-03T14:38:59;99809.41;;;16.30;97.50
63700;BME280;49845;47.130;142.766;2022-10-03T14:41:58;99808.41;;;16.32;97.32
63700;BME280;49845;47.130;142.766;2022-10-03T14:44:52;99786.84;;;16.24;97.21
63700;BME280;49845;47.130;142.766;2022-10-03T14:47:46;99792.75;;;16.29;97.47
63700;BME280;49845;47.130;142.766;2022-10-03T14:50:33;99777.22;;;16.23;97.40
63700;BME280;49845;47.130;142.766;2022-10-03T14:53:52;99715.75;;;15.85;97.16
63700;BME280;49845;47.130;142.766;2022-10-03T14:57:18;99700.25;;;15.79;97.28
63700;BME280;49845;47.130;142.766;2022-10-03T14:59:53;99691.78;;;15.72;97.52
63700;BME280;49845;47.130;142.766;2022-10-03T15:02:29;99763.41;;;16.18;97.68
63700;BME280;49845;47.130;142.766;2022-10-03T15:05:11;99709.16;;;15.95;97.60
63700;BME280;49845;47.130;142.766;2022-10-03T15:07:45;99675.19;;;15.70;97.61
63700;BME280;49845;47.130;142.766;2022-10-03T15:10:21;99723.41;;;15.91;97.79
63700;BME280;49845;47.130;142.766;2022-10-03T15:13:04;99699.16;;;15.64;97.75
63700;BME280;49845;47.130;142.766;2022-10-03T15:15:57;99692.31;;;15.60;97.79
63700;BME280;49845;47.130;142.766;2022-10-03T15:18:33;99689.34;;;15.48;98.24
63700;BME280;49845;47.130;142.766;2022-10-03T15:21:14;99653.31;;;15.30;98.37
63700;BME280;49845;47.130;142.766;2022-10-03T15:23:47;99735.31;;;15.81;98.73
63700;BME280;49845;47.130;142.766;2022-10-03T15:26:36;99719.56;;;15.79;98.98
63700;BME280;49845;47.130;142.766;2022-10-03T15:29:15;99714.44;;;15.76;99.24
63700;BME280;49845;47.130;142.766;2022-10-03T15:31:47;99700.47;;;15.74;99.32
63700;BME280;49845;47.130;142.766;2022-10-03T15:34:27;99572.09;;;15.03;99.27
63700;BME280;49845;47.130;142.766;2022-10-03T15:37:15;99693.63;;;15.70;99.58
63700;BME280;49845;47.130;142.766;2022-10-03T15:40:28;99667.56;;;15.64;99.43
63700;BME280;49845;47.130;142.766;2022-10-03T15:43:40;99591.00;;;15.12;99.44
63700;BME280;49845;47.130;142.766;2022-10-03T15:46:38;99624.22;;;15.33;99.38
63700;BME280;49845;47.130;142.766;2022-10-03T15:50:05;99563.97;;;14.89;99.36
63700;BME280;49845;47.130;142.766;2022-10-03T15:53:23;99668.13;;;15.51;99.47
63700;BME280;49845;47.130;142.766;2022-10-03T15:56:21;99602.94;;;15.19;99.40
63700;BME280;49845;47.130;142.766;2022-10-03T15:59:07;99639.66;;;15.41;99.23
63700;BME280;49845;47.130;142.766;2022-10-03T16:01:40;99653.75;;;15.59;99.25
63700;BME280;49845;47.130;142.766;2022-10-03T16:04:19;99586.72;;;15.09;98.40
63700;BME280;49845;47.130;142.766;2022-10-03T16:06:59;99663.88;;;15.68;97.79
63700;BME280;49845;47.130;142.766;2022-10-03T16:09:41;99606.72;;;15.32;96.75
63700;BME280;49845;47.130;142.766;2022-10-03T16:12:44;99651.50;;;15.70;95.88
63700;BME280;49845;47.130;142.766;2022-10-03T16:15:28;99539.66;;;15.03;95.66
63700;BME280;49845;47.130;142.766;2022-10-03T16:18:08;99624.41;;;15.47;95.24
63700;BME280;49845;47.130;142.766;2022-10-03T16:20:53;99541.06;;;14.91;95.00
63700;BME280;49845;47.130;142.766;2022-10-03T16:23:33;99579.31;;;15.17;95.46
63700;BME280;49845;47.130;142.766;2022-10-03T16:26:11;99590.00;;;15.14;96.07
63700;BME280;49845;47.130;142.766;2022-10-03T16:28:51;99649.75;;;15.31;96.57
63700;BME280;49845;47.130;142.766;2022-10-03T16:31:32;99549.22;;;14.85;97.11
63700;BME280;49845;47.130;142.766;2022-10-03T16:34:12;99610.78;;;15.20;97.59
63700;BME280;49845;47.130;142.766;2022-10-03T16:36:55;99596.56;;;15.05;97.89
63700;BME280;49845;47.130;142.766;2022-10-03T16:39:27;99608.38;;;15.16;97.71
63700;BME280;49845;47.130;142.766;2022-10-03T16:42:16;99548.47;;;14.83;97.92
63700;BME280;49845;47.130;142.766;2022-10-03T16:44:51;99506.16;;;14.69;97.90
63700;BME280;49845;47.130;142.766;2022-10-03T16:47:34;99462.34;;;14.49;97.74
63700;BME280;49845;47.130;142.766;2022-10-03T16:50:19;99521.22;;;14.84;97.98
63700;BME280;49845;47.130;142.766;2022-10-03T16:53:08;99556.00;;;15.09;98.00
63700;BME280;49845;47.130;142.766;2022-10-03T16:55:45;99560.16;;;15.15;98.22
63700;BME280;49845;47.130;142.766;2022-10-03T16:58:21;99521.72;;;14.92;98.26
63700;BME280;49845;47.130;142.766;2022-10-03T17:00:59;99448.19;;;14.51;98.63
63700;BME280;49845;47.130;142.766;2022-10-03T17:03:57;99537.38;;;14.95;98.76
63700;BME280;49845;47.130;142.766;2022-10-03T17:06:33;99444.91;;;14.46;99.03
63700;BME280;49845;47.130;142.766;2022-10-03T17:09:18;99431.97;;;14.41;99.45
63700;BME280;49845;47.130;142.766;2022-10-03T17:11:53;99499.97;;;14.88;99.83
63700;BME280;49845;47.130;142.766;2022-10-03T17:17:45;99467.00;;;14.81;100.00
63700;BME280;49845;47.130;142.766;2022-10-03T17:20:36;99484.78;;;14.95;100.00
63700;BME280;49845;47.130;142.766;2022-10-03T17:23:14;99480.38;;;14.96;100.00
63700;BME280;49845;47.130;142.766;2022-10-03T17:25:58;99427.41;;;14.65;100.00
63700;BME280;49845;47.130;142.766;2022-10-03T17:28:42;99441.69;;;14.79;100.00
63700;BME280;49845;47.130;142.766;2022-10-03T17:31:33;99359.38;;;14.39;100.00
63700;BME280;49845;47.130;142.766;2022-10-03T17:34:12;99362.44;;;14.30;100.00
63700;BME280;49845;47.130;142.766;2022-10-03T17:37:09;99419.38;;;14.69;100.00
63700;BME280;49845;47.130;142.766;2022-10-03T17:39:53;99334.25;;;14.14;100.00
63700;BME280;49845;47.130;142.766;2022-10-03T17:42:41;99378.72;;;14.57;100.00
63700;BME280;49845;47.130;142.766;2022-10-03T17:45:27;99381.53;;;14.52;100.00
63700;BME280;49845;47.130;142.766;2022-10-03T17:48:10;99422.22;;;14.83;100.00
63700;BME280;49845;47.130;142.766;2022-10-03T17:50:53;99305.97;;;14.19;100.00
63700;BME280;49845;47.130;142.766;2022-10-03T17:53:30;99343.63;;;14.39;100.00
63700;BME280;49845;47.130;142.766;2022-10-03T17:56:05;99311.09;;;14.22;100.00
63700;BME280;49845;47.130;142.766;2022-10-03T17:58:42;99295.47;;;14.19;100.00
63700;BME280;49845;47.130;142.766;2022-10-03T18:01:16;99299.31;;;14.12;100.00
63700;BME280;49845;47.130;142.766;2022-10-03T18:03:49;99372.22;;;14.65;100.00
63700;BME280;49845;47.130;142.766;2022-10-03T18:06:52;99380.22;;;14.81;100.00
63700;BME280;49845;47.130;142.766;2022-10-03T18:09:30;99315.66;;;14.38;100.00
63700;BME280;49845;47.130;142.766;2022-10-03T18:12:19;99347.19;;;14.57;100.00
63700;BME280;49845;47.130;142.766;2022-10-03T18:18:42;99380.56;;;14.74;100.00
63700;BME280;49845;47.130;142.766;2022-10-03T18:21:25;99385.97;;;14.71;100.00
63700;BME280;49845;47.130;142.766;2022-10-03T18:24:37;99338.38;;;14.39;100.00
63700;BME280;49845;47.130;142.766;2022-10-03T18:30:20;99361.38;;;14.53;100.00
63700;BME280;49845;47.130;142.766;2022-10-03T18:32:57;99290.00;;;14.05;100.00
63700;BME280;49845;47.130;142.766;2022-10-03T18:35:33;99278.00;;;13.99;100.00
63700;BME280;49845;47.130;142.766;2022-10-03T18:38:12;99320.06;;;14.18;100.00
63700;BME280;49845;47.130;142.766;2022-10-03T18:40:52;99301.81;;;14.15;100.00
63700;BME280;49845;47.130;142.766;2022-10-03T18:43:30;99370.78;;;14.58;100.00
63700;BME280;49845;47.130;142.766;2022-10-03T18:46:37;99322.75;;;14.36;100.00
63700;BME280;49845;47.130;142.766;2022-10-03T18:49:34;99274.75;;;14.13;100.00
63700;BME280;49845;47.130;142.766;2022-10-03T18:52:36;99233.72;;;13.92;100.00
63700;BME280;49845;47.130;142.766;2022-10-03T18:55:26;99249.06;;;14.01;100.00
63700;BME280;49845;47.130;142.766;2022-10-03T18:58:19;99304.97;;;14.41;100.00
63700;BME280;49845;47.130;142.766;2022-10-03T19:01:00;99252.16;;;14.09;100.00
63700;BME280;49845;47.130;142.766;2022-10-03T19:03:47;99335.53;;;14.62;100.00
63700;BME280;49845;47.130;142.766;2022-10-03T19:06:48;99265.34;;;14.27;100.00
63700;BME280;49845;47.130;142.766;2022-10-03T19:09:24;99305.47;;;14.49;100.00
63700;BME280;49845;47.130;142.766;2022-10-03T19:12:04;99241.09;;;14.21;100.00
63700;BME280;49845;47.130;142.766;2022-10-03T19:14:54;99273.28;;;14.44;100.00
63700;BME280;49845;47.130;142.766;2022-10-03T19:17:34;99253.84;;;14.48;100.00
63700;BME280;49845;47.130;142.766;2022-10-03T19:20:14;99282.81;;;14.65;100.00
63700;BME280;49845;47.130;142.766;2022-10-03T19:22:58;99296.59;;;14.71;100.00
63700;BME280;49845;47.130;142.766;2022-10-03T19:25:34;99290.38;;;14.72;100.00
63700;BME280;49845;47.130;142.766;2022-10-03T19:28:17;99280.66;;;14.74;100.00
63700;BME280;49845;47.130;142.766;2022-10-03T19:31:01;99179.09;;;14.17;100.00
63700;BME280;49845;47.130;142.766;2022-10-03T19:33:43;99217.31;;;14.42;100.00
63700;BME280;49845;47.130;142.766;2022-10-03T19:36:20;99278.09;;;14.72;100.00
63700;BME280;49845;47.130;142.766;2022-10-03T19:38:52;99258.66;;;14.57;100.00
63700;BME280;49845;47.130;142.766;2022-10-03T19:41:28;99251.88;;;14.53;100.00
63700;BME280;49845;47.130;142.766;2022-10-03T19:44:14;99220.16;;;14.37;100.00
63700;BME280;49845;47.130;142.766;2022-10-03T19:47:04;99194.88;;;14.35;100.00
63700;BME280;49845;47.130;142.766;2022-10-03T20:00:23;99212.06;;;14.42;100.00
63700;BME280;49845;47.130;142.766;2022-10-03T20:03:41;99173.72;;;14.20;100.00
63700;BME280;49845;47.130;142.766;2022-10-03T20:06:30;99181.59;;;14.20;100.00
63700;BME280;49845;47.130;142.766;2022-10-03T20:09:36;99132.66;;;13.81;100.00
63700;BME280;49845;47.130;142.766;2022-10-03T20:12:16;99135.94;;;13.87;100.00
63700;BME280;49845;47.130;142.766;2022-10-03T20:14:50;99231.69;;;14.35;100.00
63700;BME280;49845;47.130;142.766;2022-10-03T20:17:26;99192.69;;;14.08;100.00
63700;BME280;49845;47.130;142.766;2022-10-03T20:20:03;99194.09;;;14.15;100.00
63700;BME280;49845;47.130;142.766;2022-10-03T22:11:10;99054.69;;;14.36;100.00
63700;BME280;49845;47.130;142.766;2022-10-03T22:13:55;99019.94;;;14.13;100.00
63700;BME280;49845;47.130;142.766;2022-10-03T22:16:32;99066.44;;;14.46;100.00
63700;BME280;49845;47.130;142.766;2022-10-03T22:19:18;99026.50;;;14.22;100.00
63700;BME280;49845;47.130;142.766;2022-10-03T22:21:59;99032.88;;;14.51;100.00
63700;BME280;49845;47.130;142.766;2022-10-03T22:24:40;99015.56;;;14.47;100.00
63700;BME280;49845;47.130;142.766;2022-10-03T22:27:20;98989.72;;;14.22;100.00
63700;BME280;49845;47.130;142.766;2022-10-03T22:29:59;99050.84;;;14.60;100.00
63700;BME280;49845;47.130;142.766;2022-10-03T22:32:36;99048.03;;;14.63;100.00
63700;BME280;49845;47.130;142.766;2022-10-03T22:35:21;98997.06;;;14.33;100.00
63700;BME280;49845;47.130;142.766;2022-10-03T22:37:56;98989.53;;;14.25;100.00
63700;BME280;49845;47.130;142.766;2022-10-03T22:40:28;99043.25;;;14.54;100.00
63700;BME280;49845;47.130;142.766;2022-10-03T22:43:02;99021.59;;;14.49;100.00
63700;BME280;49845;47.130;142.766;2022-10-03T22:45:37;99016.81;;;14.57;100.00
63700;BME280;49845;47.130;142.766;2022-10-03T22:48:12;98985.97;;;14.43;100.00
63700;BME280;49845;47.130;142.766;2022-10-03T22:50:46;99005.44;;;14.57;100.00
63700;BME280;49845;47.130;142.766;2022-10-03T22:53:24;99039.94;;;14.84;100.00